createdAt,value
2023-03-17T00:00:05.433Z,-4.64
2023-03-17T00:03:22.332Z,-4.88
2023-03-17T00:06:30.080Z,-4.77
2023-03-17T00:09:32.979Z,-4.32
2023-03-17T00:12:35.608Z,-4.28
2023-03-17T00:15:38.928Z,-4.49
2023-03-17T00:18:42.158Z,-4.69
2023-03-17T00:21:46.146Z,-5.06
2023-03-17T00:24:48.717Z,-4.80
2023-03-17T00:27:51.493Z,-4.66
2023-03-17T00:30:57.629Z,-4.90
2023-03-17T00:34:00.796Z,-4.64
2023-03-17T00:37:04.322Z,-4.77
2023-03-17T00:40:14.871Z,-4.74
2023-03-17T00:43:17.886Z,-4.81
2023-03-17T00:46:28.615Z,-4.82
2023-03-17T00:49:32.970Z,-4.90
2023-03-17T00:52:36.199Z,-4.64
2023-03-17T00:55:38.840Z,-4.63
2023-03-17T00:58:42.197Z,-4.91
2023-03-17T01:01:44.946Z,-5.07
2023-03-17T01:04:56.191Z,-5.24
2023-03-17T01:08:03.752Z,-5.26
2023-03-17T01:11:06.885Z,-5.16
2023-03-17T01:14:10.973Z,-4.97
2023-03-17T01:17:17.127Z,-5.16
2023-03-17T01:20:23.169Z,-5.15
2023-03-17T01:23:26.196Z,-5.24
2023-03-17T01:26:28.864Z,-5.27
2023-03-17T01:29:31.805Z,-5.36
2023-03-17T01:32:34.505Z,-5.31
2023-03-17T01:35:38.488Z,-5.35
2023-03-17T01:38:41.733Z,-5.35
2023-03-17T01:41:45.686Z,-5.21
2023-03-17T01:45:28.034Z,-5.37
2023-03-17T01:48:34.419Z,-5.56
2023-03-17T01:51:43.100Z,-5.41
2023-03-17T01:54:50.555Z,-5.41
2023-03-17T01:57:54.433Z,-5.57
2023-03-17T02:00:57.431Z,-5.69
2023-03-17T02:04:01.124Z,-5.60
2023-03-17T02:07:05.336Z,-5.53
2023-03-17T02:10:09.060Z,-5.54
2023-03-17T02:13:14.072Z,-5.73
2023-03-17T02:16:17.592Z,-5.91
2023-03-17T02:19:22.554Z,-5.92
2023-03-17T02:22:25.376Z,-5.95
2023-03-17T02:25:30.829Z,-6.01
2023-03-17T02:28:34.476Z,-5.58
2023-03-17T02:31:37.164Z,-5.49
2023-03-17T02:34:39.881Z,-5.86
2023-03-17T02:37:43.880Z,-5.78
2023-03-17T02:40:46.453Z,-5.65
2023-03-17T02:43:49.180Z,-5.59
2023-03-17T02:46:52.076Z,-5.67
2023-03-17T02:49:55.005Z,-5.74
2023-03-17T02:52:58.661Z,-5.66
2023-03-17T02:56:01.322Z,-5.51
2023-03-17T02:59:04.563Z,-5.64
2023-03-17T03:02:07.219Z,-5.75
2023-03-17T03:05:10.904Z,-6.09
2023-03-17T03:08:13.584Z,-6.00
2023-03-17T03:11:16.338Z,-6.04
2023-03-17T03:14:19.022Z,-6.13
2023-03-17T03:17:21.671Z,-6.18
2023-03-17T03:20:24.419Z,-6.29
2023-03-17T03:23:27.600Z,-6.11
2023-03-17T03:26:30.574Z,-6.20
2023-03-17T03:29:33.323Z,-6.02
2023-03-17T03:32:35.986Z,-6.19
2023-03-17T03:35:39.116Z,-5.99
2023-03-17T03:38:41.926Z,-5.84
2023-03-17T03:41:44.460Z,-5.88
2023-03-17T03:44:47.171Z,-5.91
2023-03-17T03:47:50.028Z,-6.05
2023-03-17T03:51:00.154Z,-6.09
2023-03-17T03:54:02.989Z,-6.23
2023-03-17T03:57:06.004Z,-6.24
2023-03-17T04:00:09.309Z,-6.21
2023-03-17T04:03:16.199Z,-6.30
2023-03-17T04:06:18.917Z,-5.96
2023-03-17T04:09:21.578Z,-6.13
2023-03-17T04:12:24.134Z,-6.20
2023-03-17T04:15:27.278Z,-6.17
2023-03-17T04:18:31.139Z,-6.12
2023-03-17T04:21:33.690Z,-6.17
2023-03-17T04:24:36.482Z,-5.98
2023-03-17T04:27:39.341Z,-5.74
2023-03-17T04:30:42.135Z,-5.62
2023-03-17T04:33:44.864Z,-5.61
2023-03-17T04:36:48.240Z,-5.77
2023-03-17T04:39:51.469Z,-5.97
2023-03-17T04:42:54.265Z,-5.85
2023-03-17T04:45:57.070Z,-5.94
2023-03-17T04:48:59.754Z,-6.04
2023-03-17T04:52:02.382Z,-5.97
2023-03-17T04:55:08.485Z,-6.16
2023-03-17T04:58:15.660Z,-6.19
2023-03-17T05:01:27.381Z,-5.89
2023-03-17T05:04:31.980Z,-6.09
2023-03-17T05:07:35.087Z,-6.14
2023-03-17T05:10:37.686Z,-6.21
2023-03-17T05:13:43.248Z,-6.14
2023-03-17T05:16:49.088Z,-5.81
2023-03-17T05:19:51.842Z,-5.75
2023-03-17T05:22:54.530Z,-5.75
2023-03-17T05:25:57.207Z,-5.73
2023-03-17T05:28:59.796Z,-5.63
2023-03-17T05:32:02.375Z,-5.39
2023-03-17T05:35:06.175Z,-5.05
2023-03-17T05:38:11.118Z,-5.06
2023-03-17T05:41:13.800Z,-4.69
2023-03-17T05:44:16.609Z,-4.46
2023-03-17T05:47:20.185Z,-4.39
2023-03-17T05:50:23.121Z,-4.36
2023-03-17T05:53:26.037Z,-4.46
2023-03-17T05:56:33.461Z,-4.26
2023-03-17T05:59:36.377Z,-4.01
2023-03-17T06:02:39.874Z,-4.09
2023-03-17T06:05:42.647Z,-3.82
2023-03-17T06:08:45.368Z,-3.56
2023-03-17T06:11:48.010Z,-3.40
2023-03-17T06:14:50.646Z,-3.33
2023-03-17T06:17:53.506Z,-3.16
2023-03-17T06:20:56.061Z,-3.11
2023-03-17T06:23:58.614Z,-3.04
2023-03-17T06:27:01.702Z,-2.86
2023-03-17T06:30:06.552Z,-2.73
2023-03-17T06:33:09.351Z,-2.68
2023-03-17T06:36:12.519Z,-2.45
2023-03-17T06:39:15.868Z,-2.39
2023-03-17T06:42:19.294Z,-2.19
2023-03-17T06:45:22.014Z,-2.02
2023-03-17T06:48:24.807Z,-2.05
2023-03-17T06:51:28.004Z,-2.09
2023-03-17T06:54:30.829Z,-1.82
2023-03-17T06:57:33.584Z,-1.84
2023-03-17T07:00:38.467Z,-1.60
2023-03-17T07:03:41.694Z,-1.30
2023-03-17T07:06:45.075Z,-1.26
2023-03-17T07:09:48.093Z,-0.94
2023-03-17T07:12:50.768Z,-0.68
2023-03-17T07:15:55.443Z,-0.46
2023-03-17T07:18:58.321Z,-0.35
2023-03-17T07:22:01.179Z,0.00
2023-03-17T07:25:04.186Z,0.25
2023-03-17T07:28:06.914Z,0.52
2023-03-17T07:31:11.690Z,0.75
2023-03-17T07:34:14.471Z,1.41
2023-03-17T07:37:17.652Z,1.60
2023-03-17T07:40:20.443Z,1.88
2023-03-17T07:43:23.052Z,2.07
2023-03-17T07:46:26.068Z,2.19
2023-03-17T07:49:40.721Z,2.59
2023-03-17T07:52:44.085Z,2.93
2023-03-17T07:55:46.646Z,3.38
2023-03-17T07:58:49.336Z,3.58
2023-03-17T08:01:52.115Z,3.88
2023-03-17T08:04:54.814Z,4.09
2023-03-17T08:07:57.428Z,4.01
2023-03-17T08:11:04.554Z,4.08
2023-03-17T08:14:07.328Z,4.04
2023-03-17T08:17:10.658Z,4.30
2023-03-17T08:20:14.406Z,4.51
2023-03-17T08:23:20.783Z,4.87
2023-03-17T08:26:23.537Z,5.05
2023-03-17T08:29:28.507Z,5.13
2023-03-17T08:32:31.292Z,5.25
2023-03-17T08:35:34.639Z,5.42
2023-03-17T08:38:42.052Z,5.41
2023-03-17T08:41:44.564Z,5.53
2023-03-17T08:44:47.323Z,5.67
2023-03-17T08:47:50.417Z,5.83
2023-03-17T08:50:53.349Z,6.14
2023-03-17T08:53:56.517Z,6.26
2023-03-17T08:56:59.588Z,6.43
2023-03-17T09:00:02.494Z,6.20
2023-03-17T09:03:05.931Z,6.61
2023-03-17T09:06:11.687Z,6.73
2023-03-17T09:09:15.038Z,6.63
2023-03-17T09:12:17.820Z,6.78
2023-03-17T09:15:21.357Z,6.90
2023-03-17T09:18:24.019Z,6.94
2023-03-17T09:21:27.453Z,6.93
2023-03-17T09:24:30.004Z,6.89
2023-03-17T09:27:32.916Z,6.98
2023-03-17T09:30:35.688Z,7.12
2023-03-17T09:33:39.880Z,7.44
2023-03-17T09:36:42.858Z,7.30
2023-03-17T09:39:45.524Z,7.42
2023-03-17T09:43:06.985Z,7.36
2023-03-17T09:46:35.599Z,7.40
2023-03-17T09:49:45.979Z,7.75
2023-03-17T09:52:51.387Z,7.82
2023-03-17T09:55:58.456Z,7.97
2023-03-17T09:59:08.775Z,7.99
2023-03-17T10:02:37.964Z,7.90
2023-03-17T10:05:40.697Z,8.07
2023-03-17T10:09:18.592Z,8.11
2023-03-17T10:12:46.982Z,8.35
2023-03-17T10:15:51.231Z,8.48
2023-03-17T10:19:00.884Z,8.37
2023-03-17T10:22:07.182Z,8.31
2023-03-17T10:25:25.736Z,8.53
2023-03-17T10:28:31.680Z,8.61
2023-03-17T10:31:35.700Z,8.61
2023-03-17T10:34:39.748Z,8.69
2023-03-17T10:37:44.032Z,8.76
2023-03-17T10:40:55.848Z,8.79
2023-03-17T10:43:59.655Z,9.05
2023-03-17T10:47:02.365Z,9.05
2023-03-17T10:50:30.165Z,8.91
2023-03-17T10:53:38.498Z,8.88
2023-03-17T10:56:42.494Z,8.75
2023-03-17T10:59:58.666Z,8.95
2023-03-17T11:03:11.048Z,8.86
2023-03-17T11:06:22.618Z,8.97
2023-03-17T11:09:28.333Z,9.29
2023-03-17T11:12:41.462Z,9.21
2023-03-17T11:15:49.853Z,9.01
2023-03-17T11:18:58.201Z,9.20
2023-03-17T11:22:15.316Z,9.42
2023-03-17T11:25:20.353Z,9.40
2023-03-17T11:28:28.447Z,9.56
2023-03-17T11:31:32.423Z,9.53
2023-03-17T11:34:34.951Z,9.56
2023-03-17T11:37:48.975Z,9.86
2023-03-17T11:41:18.963Z,10.20
2023-03-17T11:44:40.471Z,10.40
2023-03-17T11:48:06.177Z,10.37
2023-03-17T11:51:30.538Z,10.56
2023-03-17T11:54:58.969Z,10.53
2023-03-17T11:58:09.642Z,10.49
2023-03-17T12:01:19.686Z,10.36
2023-03-17T12:04:34.341Z,10.67
2023-03-17T12:07:45.076Z,10.81
2023-03-17T12:10:54.796Z,10.73
2023-03-17T12:14:04.962Z,10.97
2023-03-17T12:17:13.592Z,10.91
2023-03-17T12:20:22.462Z,10.94
2023-03-17T12:23:30.229Z,11.11
2023-03-17T12:26:48.192Z,11.46
2023-03-17T12:30:03.038Z,11.73
2023-03-17T12:33:39.240Z,11.54
2023-03-17T12:36:42.805Z,11.35
2023-03-17T12:40:11.121Z,11.45
2023-03-17T12:43:29.276Z,11.60
2023-03-17T12:46:47.641Z,11.54
2023-03-17T12:49:56.252Z,11.35
2023-03-17T12:53:14.446Z,11.33
2023-03-17T12:56:20.025Z,11.46
2023-03-17T12:59:25.232Z,11.57
2023-03-17T13:02:27.657Z,11.55
2023-03-17T13:05:32.965Z,11.70
2023-03-17T13:08:43.192Z,11.63
2023-03-17T13:11:48.889Z,11.72
2023-03-17T13:14:52.039Z,11.64
2023-03-17T13:18:15.436Z,11.49
2023-03-17T13:21:19.358Z,11.78
2023-03-17T13:24:36.129Z,11.88
2023-03-17T13:27:38.609Z,12.08
2023-03-17T13:30:42.607Z,12.23
2023-03-17T13:33:50.392Z,12.25
2023-03-17T13:37:19.765Z,12.15
2023-03-17T13:40:23.922Z,12.17
2023-03-17T13:44:02.077Z,12.31
2023-03-17T13:47:35.963Z,12.28
2023-03-17T13:50:40.143Z,12.48
2023-03-17T13:53:47.870Z,12.69
2023-03-17T13:56:51.463Z,12.62
2023-03-17T14:00:15.350Z,12.71
2023-03-17T14:03:27.533Z,12.76
2023-03-17T14:06:34.534Z,13.08
2023-03-17T14:09:42.305Z,13.26
2023-03-17T14:12:50.819Z,13.38
2023-03-17T14:16:12.496Z,13.63
2023-03-17T14:19:27.706Z,13.63
2023-03-17T14:22:30.389Z,14.27
2023-03-17T14:25:35.542Z,15.37
2023-03-17T14:28:38.189Z,15.02
2023-03-17T14:31:41.017Z,16.02
2023-03-17T14:34:54.383Z,15.41
2023-03-17T14:37:57.159Z,15.95
2023-03-17T14:41:05.823Z,15.08
2023-03-17T14:44:08.880Z,15.71
2023-03-17T14:47:32.599Z,17.10
2023-03-17T14:50:35.193Z,17.27
2023-03-17T14:53:43.395Z,17.21
2023-03-17T14:56:52.129Z,18.23
2023-03-17T15:00:02.152Z,19.05
2023-03-17T15:03:18.799Z,18.63
2023-03-17T15:06:26.805Z,18.16
2023-03-17T15:09:31.888Z,17.31
2023-03-17T15:12:34.616Z,16.62
2023-03-17T15:15:39.210Z,16.65
2023-03-17T15:18:41.906Z,17.11
2023-03-17T15:21:44.687Z,16.85
2023-03-17T15:24:57.484Z,16.72
2023-03-17T15:28:00.455Z,16.41
2023-03-17T15:31:13.093Z,16.16
2023-03-17T15:34:15.802Z,16.28
2023-03-17T15:37:27.301Z,15.69
2023-03-17T15:40:29.904Z,16.52
2023-03-17T15:43:32.679Z,17.26
2023-03-17T15:46:35.469Z,16.81
2023-03-17T15:49:38.095Z,16.73
2023-03-17T15:52:41.068Z,16.45
2023-03-17T15:55:43.872Z,16.64
2023-03-17T15:58:49.236Z,16.99
2023-03-17T16:01:51.852Z,16.19
2023-03-17T16:04:55.218Z,15.87
2023-03-17T16:07:57.904Z,16.26
2023-03-17T16:11:00.686Z,16.38
2023-03-17T16:14:03.276Z,15.20
2023-03-17T16:17:07.184Z,13.52
2023-03-17T16:20:20.743Z,12.73
2023-03-17T16:23:29.006Z,12.04
2023-03-17T16:26:31.685Z,11.18
2023-03-17T16:29:34.268Z,10.43
2023-03-17T16:32:36.986Z,9.64
2023-03-17T16:35:39.763Z,9.09
2023-03-17T16:38:42.774Z,8.49
2023-03-17T16:41:47.575Z,7.94
2023-03-17T16:44:51.024Z,7.55
2023-03-17T16:47:54.124Z,7.20
2023-03-17T16:50:57.711Z,6.88
2023-03-17T16:54:00.578Z,6.42
2023-03-17T16:57:04.237Z,6.07
2023-03-17T17:00:09.381Z,5.95
2023-03-17T17:03:12.365Z,5.72
2023-03-17T17:06:15.562Z,5.50
2023-03-17T17:09:18.970Z,5.47
2023-03-17T17:12:21.656Z,5.41
2023-03-17T17:15:24.346Z,5.05
2023-03-17T17:18:27.669Z,4.94
2023-03-17T17:21:31.389Z,4.75
2023-03-17T17:24:34.103Z,4.43
2023-03-17T17:27:38.015Z,4.55
2023-03-17T17:30:45.078Z,4.30
2023-03-17T17:33:47.782Z,4.36
2023-03-17T17:36:50.551Z,4.30
2023-03-17T17:39:53.559Z,4.37
2023-03-17T17:42:56.745Z,4.29
2023-03-17T17:45:59.460Z,4.21
2023-03-17T17:49:02.236Z,4.27
2023-03-17T17:52:05.956Z,4.19
2023-03-17T17:55:08.880Z,4.31
2023-03-17T17:58:17.063Z,4.39
2023-03-17T18:01:22.779Z,4.19
2023-03-17T18:04:26.030Z,4.23
2023-03-17T18:07:28.852Z,3.97
2023-03-17T18:10:31.986Z,3.80
2023-03-17T18:13:36.235Z,3.47
2023-03-17T18:16:39.072Z,2.97
2023-03-17T18:19:42.248Z,2.61
2023-03-17T18:22:45.722Z,2.37
2023-03-17T18:25:49.438Z,2.42
2023-03-17T18:28:52.660Z,2.31
2023-03-17T18:31:55.745Z,2.34
2023-03-17T18:35:01.245Z,2.65
2023-03-17T18:38:04.163Z,2.38
2023-03-17T18:41:07.691Z,2.29
2023-03-17T18:44:11.216Z,1.87
2023-03-17T18:47:15.997Z,1.61
2023-03-17T18:50:21.795Z,1.49
2023-03-17T18:53:24.988Z,1.67
2023-03-17T18:56:29.745Z,1.66
2023-03-17T18:59:32.608Z,1.35
2023-03-17T19:02:37.714Z,1.16
2023-03-17T19:05:41.051Z,1.23
2023-03-17T19:08:44.300Z,1.29
2023-03-17T19:11:47.081Z,1.71
2023-03-17T19:14:50.115Z,2.09
2023-03-17T19:17:52.770Z,1.96
2023-03-17T19:20:56.682Z,2.08
2023-03-17T19:24:01.417Z,2.09
2023-03-17T19:27:05.820Z,2.08
2023-03-17T19:30:09.133Z,2.11
2023-03-17T19:33:13.320Z,2.29
2023-03-17T19:36:16.168Z,2.06
2023-03-17T19:39:19.001Z,1.94
2023-03-17T19:42:22.271Z,2.06
2023-03-17T19:45:26.224Z,2.25
2023-03-17T19:48:28.953Z,2.40
2023-03-17T19:51:33.199Z,2.49
2023-03-17T19:54:45.871Z,2.77
2023-03-17T19:57:48.729Z,2.72
2023-03-17T20:00:51.731Z,2.92
2023-03-17T20:03:54.373Z,2.79
2023-03-17T20:06:58.184Z,2.75
2023-03-17T20:10:01.560Z,2.80
2023-03-17T20:13:04.366Z,2.79
2023-03-17T20:16:07.796Z,2.86
2023-03-17T20:19:11.009Z,2.71
2023-03-17T20:22:13.752Z,2.79
2023-03-17T20:25:16.660Z,2.64
2023-03-17T20:28:21.527Z,2.09
2023-03-17T20:31:24.395Z,1.69
2023-03-17T20:34:27.137Z,1.79
2023-03-17T20:37:29.963Z,1.61
2023-03-17T20:40:32.998Z,1.41
2023-03-17T20:43:37.603Z,1.00
2023-03-17T20:46:40.594Z,0.98
2023-03-17T20:49:43.172Z,0.93
2023-03-17T20:52:46.664Z,0.78
2023-03-17T20:55:50.630Z,0.51
2023-03-17T20:58:53.654Z,0.25
2023-03-17T21:01:56.770Z,0.19
2023-03-17T21:04:59.517Z,0.23
2023-03-17T21:08:02.435Z,0.26
2023-03-17T21:11:06.504Z,0.25
2023-03-17T21:14:12.320Z,0.34
2023-03-17T21:17:16.397Z,0.10
2023-03-17T21:20:21.269Z,0.23
2023-03-17T21:23:24.034Z,-0.04
2023-03-17T21:26:26.777Z,-0.41
2023-03-17T21:29:30.851Z,-0.46
2023-03-17T21:32:33.497Z,-0.48
2023-03-17T21:35:36.865Z,0.06
2023-03-17T21:38:39.650Z,0.27
2023-03-17T21:41:42.260Z,0.10
2023-03-17T21:44:45.908Z,0.10
2023-03-17T21:47:49.301Z,0.31
2023-03-17T21:50:52.060Z,0.60
2023-03-17T21:53:54.682Z,0.54
2023-03-17T21:56:57.293Z,0.63
2023-03-17T22:00:00.123Z,0.60
2023-03-17T22:03:02.703Z,0.50
2023-03-17T22:06:05.927Z,0.59
2023-03-17T22:09:08.847Z,0.45
2023-03-17T22:12:11.950Z,0.30
2023-03-17T22:15:14.644Z,0.38
2023-03-17T22:18:18.039Z,0.23
2023-03-17T22:21:21.720Z,0.18
2023-03-17T22:24:25.572Z,0.03
2023-03-17T22:27:28.165Z,-0.27
2023-03-17T22:30:31.382Z,-0.53
2023-03-17T22:33:34.249Z,-0.66
2023-03-17T22:36:37.480Z,-0.90
2023-03-17T22:39:39.983Z,-0.92
2023-03-17T22:42:42.718Z,-1.09
2023-03-17T22:45:45.316Z,-1.16
2023-03-17T22:48:47.987Z,-0.94
2023-03-17T22:51:50.666Z,-1.02
2023-03-17T22:54:53.243Z,-1.22
2023-03-17T22:57:56.085Z,-1.14
2023-03-17T23:00:58.702Z,-1.44
2023-03-17T23:04:02.150Z,-1.55
2023-03-17T23:07:05.626Z,-1.33
2023-03-17T23:10:09.387Z,-1.45
2023-03-17T23:13:12.834Z,-1.63
2023-03-17T23:16:16.233Z,-1.68
2023-03-17T23:19:19.262Z,-1.66
2023-03-17T23:22:21.935Z,-1.73
2023-03-17T23:25:24.665Z,-1.86
2023-03-17T23:28:27.367Z,-1.96
2023-03-17T23:31:30.393Z,-1.82
2023-03-17T23:34:33.247Z,-1.96
2023-03-17T23:37:36.305Z,-2.19
2023-03-17T23:40:39.782Z,-2.35
2023-03-17T23:43:42.592Z,-2.25
2023-03-17T23:46:45.401Z,-2.17
2023-03-17T23:49:47.976Z,-2.04
2023-03-17T23:52:50.709Z,-2.12
2023-03-17T23:55:54.559Z,-2.09
2023-03-17T23:58:57.210Z,-2.34
